createdAt,value
2023-03-11T00:00:00.348Z,42.10
2023-03-11T00:02:27.707Z,37.53
2023-03-11T00:04:55.031Z,41.67
2023-03-11T00:07:22.327Z,41.50
2023-03-11T00:09:49.807Z,41.03
2023-03-11T00:12:17.085Z,41.00
2023-03-11T00:14:44.356Z,42.47
2023-03-11T00:17:11.663Z,39.27
2023-03-11T00:19:38.916Z,39.20
2023-03-11T00:22:06.232Z,38.33
2023-03-11T00:24:33.671Z,42.73
2023-03-11T00:27:01.033Z,36.40
2023-03-11T00:29:28.263Z,36.77
2023-03-11T00:31:55.570Z,40.53
2023-03-11T00:34:22.857Z,36.93
2023-03-11T00:36:50.399Z,36.43
2023-03-11T00:39:17.639Z,35.63
2023-03-11T00:41:44.978Z,37.60
2023-03-11T00:44:13.829Z,36.57
2023-03-11T00:46:41.247Z,37.37
2023-03-11T00:49:08.614Z,34.40
2023-03-11T00:51:35.936Z,36.93
2023-03-11T00:54:03.334Z,37.67
2023-03-11T00:56:31.421Z,40.67
2023-03-11T00:58:59.244Z,35.23
2023-03-11T01:01:26.573Z,35.03
2023-03-11T01:03:53.908Z,34.27
2023-03-11T01:06:21.189Z,33.60
2023-03-11T01:08:48.425Z,35.70
2023-03-11T01:11:17.029Z,37.83
2023-03-11T01:13:46.132Z,36.03
2023-03-11T01:16:13.560Z,35.80
2023-03-11T01:18:40.924Z,34.33
2023-03-11T01:21:08.230Z,34.63
2023-03-11T01:23:35.604Z,37.47
2023-03-11T01:26:03.979Z,39.00
2023-03-11T01:28:31.253Z,34.60
2023-03-11T01:30:59.313Z,37.97
2023-03-11T01:33:27.195Z,36.47
2023-03-11T01:35:54.696Z,36.93
2023-03-11T01:38:22.019Z,39.33
2023-03-11T01:40:50.744Z,32.60
2023-03-11T01:43:40.719Z,46.60
2023-03-11T01:46:23.458Z,35.80
2023-03-11T01:48:52.555Z,35.87
2023-03-11T01:51:23.996Z,35.97
2023-03-11T01:53:52.083Z,33.87
2023-03-11T01:56:19.892Z,35.77
2023-03-11T01:58:50.016Z,35.07
2023-03-11T02:01:17.508Z,33.50
2023-03-11T02:03:44.969Z,34.17
2023-03-11T02:06:17.647Z,32.20
2023-03-11T02:08:45.847Z,33.60
2023-03-11T02:11:22.609Z,32.43
2023-03-11T02:13:50.391Z,33.93
2023-03-11T02:16:17.845Z,30.73
2023-03-11T02:18:45.246Z,31.37
2023-03-11T02:21:12.575Z,34.40
2023-03-11T02:23:45.111Z,27.40
2023-03-11T02:26:32.741Z,31.87
2023-03-11T02:29:00.681Z,31.50
2023-03-11T02:31:29.035Z,29.33
2023-03-11T02:33:58.647Z,28.80
2023-03-11T02:36:33.227Z,26.00
2023-03-11T02:39:01.044Z,28.03
2023-03-11T02:41:28.915Z,28.53
2023-03-11T02:43:56.518Z,29.70
2023-03-11T02:46:25.255Z,30.73
2023-03-11T02:48:53.325Z,26.43
2023-03-11T02:51:20.732Z,26.00
2023-03-11T02:53:51.519Z,26.73
2023-03-11T02:56:19.009Z,25.93
2023-03-11T02:58:46.300Z,26.40
2023-03-11T03:01:13.591Z,26.30
2023-03-11T03:03:44.024Z,23.23
2023-03-11T03:06:12.442Z,24.17
2023-03-11T03:08:39.979Z,23.37
2023-03-11T03:11:07.273Z,24.37
2023-03-11T03:13:34.696Z,22.67
2023-03-11T03:16:02.164Z,23.97
2023-03-11T03:18:29.917Z,22.33
2023-03-11T03:20:57.235Z,25.63
2023-03-11T03:23:24.584Z,23.93
2023-03-11T03:25:52.011Z,22.60
2023-03-11T03:28:19.816Z,24.47
2023-03-11T03:30:47.410Z,23.47
2023-03-11T03:33:15.229Z,21.23
2023-03-11T03:35:45.384Z,22.40
2023-03-11T03:38:18.803Z,21.87
2023-03-11T03:40:47.725Z,20.27
2023-03-11T03:43:17.776Z,22.07
2023-03-11T03:45:46.560Z,23.13
2023-03-11T03:48:14.087Z,24.27
2023-03-11T03:50:44.970Z,23.67
2023-03-11T03:53:15.671Z,21.87
2023-03-11T03:55:43.650Z,21.00
2023-03-11T03:58:11.369Z,19.23
2023-03-11T04:00:39.560Z,20.57
2023-03-11T04:03:07.803Z,18.43
2023-03-11T04:05:42.835Z,17.47
2023-03-11T04:08:13.762Z,19.13
2023-03-11T04:10:41.268Z,17.70
2023-03-11T04:13:08.900Z,18.87
2023-03-11T04:15:38.564Z,16.83
2023-03-11T04:18:06.603Z,19.13
2023-03-11T04:20:34.085Z,16.90
2023-03-11T04:23:01.462Z,18.27
2023-03-11T04:25:28.829Z,17.67
2023-03-11T04:27:56.591Z,17.77
2023-03-11T04:30:24.489Z,19.37
2023-03-11T04:32:56.170Z,17.47
2023-03-11T04:35:24.537Z,18.17
2023-03-11T04:37:52.000Z,17.80
2023-03-11T04:40:19.761Z,15.67
2023-03-11T04:42:47.156Z,19.93
2023-03-11T04:45:18.450Z,16.13
2023-03-11T04:47:50.449Z,17.57
2023-03-11T04:50:20.454Z,17.67
2023-03-11T04:52:48.197Z,18.63
2023-03-11T04:55:16.215Z,17.33
2023-03-11T04:57:44.358Z,18.00
2023-03-11T05:00:15.744Z,15.33
2023-03-11T05:02:46.572Z,19.07
2023-03-11T05:05:14.091Z,18.33
2023-03-11T05:07:42.889Z,17.70
2023-03-11T05:10:11.659Z,17.13
2023-03-11T05:12:39.646Z,18.33
2023-03-11T05:15:08.244Z,17.70
2023-03-11T05:17:35.929Z,14.87
2023-03-11T05:20:06.304Z,15.80
2023-03-11T05:22:33.715Z,16.83
2023-03-11T05:25:01.154Z,16.37
2023-03-11T05:27:29.036Z,17.37
2023-03-11T05:29:57.702Z,17.63
2023-03-11T05:32:27.315Z,18.87
2023-03-11T05:34:55.747Z,24.03
2023-03-11T05:37:23.055Z,17.63
2023-03-11T05:39:52.727Z,16.77
2023-03-11T05:42:21.613Z,17.70
2023-03-11T05:44:51.878Z,17.30
2023-03-11T05:47:20.066Z,16.17
2023-03-11T05:49:49.081Z,16.00
2023-03-11T05:52:20.868Z,17.17
2023-03-11T05:54:52.527Z,18.27
2023-03-11T05:57:23.433Z,19.00
2023-03-11T05:59:51.488Z,16.20
2023-03-11T06:02:20.834Z,16.30
2023-03-11T06:04:48.534Z,19.83
2023-03-11T06:07:16.447Z,17.40
2023-03-11T06:09:46.497Z,16.73
2023-03-11T06:12:28.803Z,16.33
2023-03-11T06:15:08.829Z,12.63
2023-03-11T06:17:38.459Z,14.43
2023-03-11T06:20:06.549Z,14.77
2023-03-11T06:22:34.429Z,13.27
2023-03-11T06:25:02.218Z,18.13
2023-03-11T06:27:32.179Z,14.33
2023-03-11T06:29:59.582Z,13.17
2023-03-11T06:32:29.800Z,11.93
2023-03-11T06:34:57.430Z,12.53
2023-03-11T06:37:25.801Z,11.07
2023-03-11T06:39:53.645Z,12.50
2023-03-11T06:42:24.536Z,12.13
2023-03-11T06:44:54.168Z,14.27
2023-03-11T06:47:21.634Z,12.50
2023-03-11T06:49:50.847Z,13.40
2023-03-11T06:52:19.496Z,14.30
2023-03-11T06:54:47.167Z,12.83
2023-03-11T06:57:16.538Z,12.53
2023-03-11T06:59:44.541Z,13.03
2023-03-11T07:02:15.255Z,15.07
2023-03-11T07:04:43.730Z,15.03
2023-03-11T07:07:11.103Z,13.03
2023-03-11T07:09:38.430Z,15.63
2023-03-11T07:12:07.496Z,15.60
2023-03-11T07:14:37.371Z,14.73
2023-03-11T07:17:04.705Z,16.30
2023-03-11T07:19:37.193Z,17.27
2023-03-11T07:22:04.499Z,16.27
2023-03-11T07:24:31.782Z,16.27
2023-03-11T07:26:59.138Z,14.70
2023-03-11T07:29:26.402Z,15.73
2023-03-11T07:31:53.681Z,17.17
2023-03-11T07:34:21.001Z,15.60
2023-03-11T07:36:48.260Z,18.20
2023-03-11T07:39:17.447Z,19.80
2023-03-11T07:41:46.399Z,17.90
2023-03-11T07:44:14.685Z,20.33
2023-03-11T07:46:42.360Z,20.40
2023-03-11T16:58:32.636Z,8.37
2023-03-11T17:00:59.636Z,8.37
2023-03-11T17:03:31.573Z,11.40
2023-03-11T17:06:03.083Z,9.40
2023-03-11T17:08:30.163Z,10.67
2023-03-11T17:10:57.405Z,12.40
2023-03-11T17:13:24.792Z,11.93
2023-03-11T17:16:02.175Z,10.67
2023-03-11T17:18:30.692Z,9.50
2023-03-11T17:20:58.044Z,11.33
2023-03-11T17:23:25.416Z,16.33
2023-03-11T17:25:52.732Z,9.83
2023-03-11T17:28:20.034Z,12.00
2023-03-11T17:30:47.443Z,10.67
2023-03-11T17:33:14.947Z,10.33
2023-03-11T17:35:42.402Z,11.33
2023-03-11T17:38:09.387Z,11.67
2023-03-11T17:40:37.699Z,15.07
2023-03-11T17:43:04.659Z,11.37
2023-03-11T17:45:31.609Z,10.67
2023-03-11T17:47:58.526Z,10.13
2023-03-11T17:50:26.509Z,10.80
2023-03-11T17:52:54.279Z,14.30
2023-03-11T17:55:21.695Z,9.43
2023-03-11T17:57:48.982Z,12.60
2023-03-11T18:00:16.184Z,14.43
2023-03-11T18:02:43.224Z,9.73
2023-03-11T18:05:10.766Z,13.63
2023-03-11T18:07:41.375Z,8.70
2023-03-11T18:10:09.165Z,11.67
2023-03-11T18:12:36.131Z,11.70
2023-03-11T18:15:14.318Z,12.17
2023-03-11T18:17:41.223Z,10.00
2023-03-11T18:20:08.991Z,10.13
2023-03-11T18:22:37.258Z,8.83
2023-03-11T18:25:04.963Z,10.37
2023-03-11T18:27:31.822Z,10.73
2023-03-11T18:30:00.201Z,10.10
2023-03-11T18:32:27.253Z,11.88
2023-03-11T18:34:54.168Z,8.33
2023-03-11T18:37:21.084Z,9.07
2023-03-11T18:39:48.091Z,11.23
2023-03-11T18:42:15.989Z,11.10
2023-03-11T18:44:43.022Z,8.80
2023-03-11T18:47:09.971Z,9.37
2023-03-11T18:49:37.022Z,10.17
2023-03-11T18:52:04.164Z,7.63
2023-03-11T18:54:31.153Z,7.57
2023-03-11T18:56:58.119Z,8.20
2023-03-11T18:59:27.616Z,10.43
2023-03-11T19:01:54.757Z,9.13
2023-03-11T19:04:21.716Z,7.50
2023-03-11T19:06:50.255Z,7.17
2023-03-11T19:09:20.435Z,7.97
2023-03-11T19:11:47.333Z,7.60
2023-03-11T19:14:14.352Z,6.53
2023-03-11T19:16:41.481Z,9.00
2023-03-11T19:19:10.794Z,8.30
2023-03-11T19:21:38.720Z,9.47
2023-03-11T19:24:05.859Z,8.47
2023-03-11T19:26:45.712Z,9.40
2023-03-11T19:29:14.387Z,6.30
2023-03-11T19:31:41.538Z,6.60
2023-03-11T19:34:08.460Z,8.73
2023-03-11T19:36:35.366Z,6.70
2023-03-11T19:39:02.309Z,6.47
2023-03-11T19:41:29.329Z,7.27
2023-03-11T19:43:56.327Z,6.47
2023-03-11T19:46:23.543Z,6.07
2023-03-11T19:48:50.927Z,7.23
2023-03-11T19:51:19.436Z,6.07
2023-03-11T19:53:47.170Z,8.97
2023-03-11T19:56:14.571Z,7.47
2023-03-11T19:58:42.725Z,10.60
2023-03-11T20:01:17.725Z,9.27
2023-03-11T20:03:44.752Z,9.03
2023-03-11T20:06:16.290Z,6.77
2023-03-11T20:08:43.763Z,10.33
2023-03-11T20:11:10.916Z,9.27
2023-03-11T20:13:38.224Z,9.70
2023-03-11T20:16:10.151Z,9.00
2023-03-11T20:18:37.294Z,10.07
2023-03-11T20:21:06.572Z,10.40
2023-03-11T20:23:34.193Z,9.53
2023-03-11T20:26:05.575Z,8.87
2023-03-11T20:28:32.734Z,10.27
2023-03-11T20:30:59.793Z,10.93
2023-03-11T20:33:26.723Z,8.70
2023-03-11T20:36:04.004Z,11.05
2023-03-11T20:38:30.960Z,9.90
2023-03-11T20:40:58.115Z,8.83
2023-03-11T20:43:25.006Z,9.30
2023-03-11T20:45:52.027Z,11.57
2023-03-11T20:48:19.008Z,9.30
2023-03-11T20:50:45.909Z,13.20
2023-03-11T20:53:12.822Z,14.73
2023-03-11T20:55:41.018Z,12.23
2023-03-11T20:58:08.155Z,10.93
2023-03-11T21:00:35.725Z,12.23
2023-03-11T21:03:03.038Z,12.33
2023-03-11T21:05:30.026Z,12.20
2023-03-11T21:07:57.006Z,11.13
2023-03-11T21:10:23.967Z,15.20
2023-03-11T21:12:53.304Z,14.33
2023-03-11T21:15:20.817Z,15.63
2023-03-11T21:17:47.862Z,14.47
2023-03-11T21:20:15.062Z,13.20
2023-03-11T21:22:42.007Z,12.20
2023-03-11T21:25:09.359Z,13.10
2023-03-11T21:27:36.406Z,15.57
2023-03-11T21:30:04.233Z,13.73
2023-03-11T21:32:32.067Z,15.73
2023-03-11T21:35:00.856Z,13.87
2023-03-11T21:37:28.995Z,13.90
2023-03-11T21:39:56.354Z,13.77
2023-03-11T21:42:23.618Z,14.20
2023-03-11T21:44:51.693Z,13.93
2023-03-11T21:47:19.391Z,14.20
2023-03-11T21:49:46.281Z,12.37
2023-03-11T21:52:13.368Z,15.73
2023-03-11T21:54:40.381Z,15.70
2023-03-11T21:57:07.489Z,11.83
2023-03-11T21:59:34.618Z,14.10
2023-03-11T22:02:03.287Z,11.03
2023-03-11T22:04:31.017Z,11.57
2023-03-11T22:06:58.248Z,12.07
2023-03-11T22:09:26.359Z,10.27
2023-03-11T22:11:54.169Z,12.23
2023-03-11T22:14:21.168Z,12.37
2023-03-11T22:16:48.231Z,12.30
2023-03-11T22:19:15.602Z,13.07
2023-03-11T22:21:43.250Z,14.03
2023-03-11T22:24:10.899Z,11.90
2023-03-11T22:26:38.306Z,11.40
2023-03-11T22:29:06.695Z,13.17
2023-03-11T22:31:35.693Z,12.47
2023-03-11T22:34:02.657Z,12.53
2023-03-11T22:36:29.799Z,15.73
2023-03-11T22:38:57.648Z,13.90
2023-03-11T22:41:24.784Z,14.17
2023-03-11T22:43:51.856Z,16.00
2023-03-11T22:46:18.863Z,14.43
2023-03-11T22:48:45.827Z,16.03
2023-03-11T22:51:13.123Z,13.97
2023-03-11T22:53:40.045Z,15.50
2023-03-11T22:56:12.799Z,13.43
2023-03-11T22:58:40.094Z,15.67
2023-03-11T23:01:07.773Z,14.13
2023-03-11T23:03:36.107Z,16.10
2023-03-11T23:06:06.777Z,13.03
2023-03-11T23:08:35.118Z,15.43
2023-03-11T23:11:04.408Z,14.67
2023-03-11T23:13:32.288Z,14.10
2023-03-11T23:16:08.401Z,12.00
2023-03-11T23:18:35.885Z,15.23
2023-03-11T23:21:02.950Z,16.00
